sensor_id;sensor_type;location;lat;lon;timestamp;pressure;altitude;pressure_sealevel;temperature;humidity
57376;BME280;44805;45.048;5.062;2023-05-20T00:00:13;99615.69;;;14.04;100.00
57376;BME280;44805;45.048;5.062;2023-05-20T00:02:38;99564.13;;;13.60;100.00
57376;BME280;44805;45.048;5.062;2023-05-20T00:05:04;99613.25;;;13.94;100.00
57376;BME280;44805;45.048;5.062;2023-05-20T00:07:30;99569.53;;;13.75;100.00
57376;BME280;44805;45.048;5.062;2023-05-20T00:09:56;99583.19;;;13.87;100.00
57376;BME280;44805;45.048;5.062;2023-05-20T00:12:21;99598.53;;;13.92;100.00
57376;BME280;44805;45.048;5.062;2023-05-20T00:14:46;99606.25;;;14.01;100.00
57376;BME280;44805;45.048;5.062;2023-05-20T00:17:12;99604.63;;;14.00;100.00
57376;BME280;44805;45.048;5.062;2023-05-20T00:19:37;99607.88;;;14.10;100.00
57376;BME280;44805;45.048;5.062;2023-05-20T00:22:04;99600.28;;;14.07;100.00
57376;BME280;44805;45.048;5.062;2023-05-20T00:24:29;99592.03;;;14.02;100.00
57376;BME280;44805;45.048;5.062;2023-05-20T00:26:55;99538.28;;;13.71;100.00
57376;BME280;44805;45.048;5.062;2023-05-20T00:29:21;99589.13;;;13.89;100.00
57376;BME280;44805;45.048;5.062;2023-05-20T00:31:46;99593.78;;;13.87;100.00
57376;BME280;44805;45.048;5.062;2023-05-20T00:34:12;99563.78;;;13.63;100.00
57376;BME280;44805;45.048;5.062;2023-05-20T00:36:37;99597.25;;;13.87;100.00
57376;BME280;44805;45.048;5.062;2023-05-20T00:39:03;99594.09;;;13.84;100.00
57376;BME280;44805;45.048;5.062;2023-05-20T00:41:28;99569.72;;;13.65;100.00
57376;BME280;44805;45.048;5.062;2023-05-20T00:43:54;99583.75;;;13.74;100.00
57376;BME280;44805;45.048;5.062;2023-05-20T00:46:20;99597.75;;;13.83;100.00
57376;BME280;44805;45.048;5.062;2023-05-20T00:48:46;99548.75;;;13.56;100.00
57376;BME280;44805;45.048;5.062;2023-05-20T00:51:13;99538.53;;;13.53;100.00
57376;BME280;44805;45.048;5.062;2023-05-20T00:53:39;99569.69;;;13.74;100.00
57376;BME280;44805;45.048;5.062;2023-05-20T00:56:05;99559.50;;;13.62;100.00
57376;BME280;44805;45.048;5.062;2023-05-20T00:58:31;99603.41;;;13.80;100.00
57376;BME280;44805;45.048;5.062;2023-05-20T01:00:56;99534.16;;;13.37;100.00
57376;BME280;44805;45.048;5.062;2023-05-20T01:03:22;99499.31;;;13.17;100.00
57376;BME280;44805;45.048;5.062;2023-05-20T01:05:47;99484.81;;;13.13;100.00
57376;BME280;44805;45.048;5.062;2023-05-20T01:08:13;99577.81;;;13.72;100.00
57376;BME280;44805;45.048;5.062;2023-05-20T01:10:41;99562.41;;;13.76;100.00
57376;BME280;44805;45.048;5.062;2023-05-20T01:13:10;99583.56;;;13.76;100.00
57376;BME280;44805;45.048;5.062;2023-05-20T01:15:40;99562.25;;;13.77;100.00
57376;BME280;44805;45.048;5.062;2023-05-20T01:18:08;99515.28;;;13.40;100.00
57376;BME280;44805;45.048;5.062;2023-05-20T01:20:35;99544.44;;;13.63;100.00
57376;BME280;44805;45.048;5.062;2023-05-20T01:23:01;99477.22;;;13.10;100.00
57376;BME280;44805;45.048;5.062;2023-05-20T01:25:27;99534.09;;;13.45;100.00
57376;BME280;44805;45.048;5.062;2023-05-20T01:27:55;99504.75;;;13.23;100.00
57376;BME280;44805;45.048;5.062;2023-05-20T01:30:22;99506.28;;;13.18;100.00
57376;BME280;44805;45.048;5.062;2023-05-20T01:32:52;99564.44;;;13.65;100.00
57376;BME280;44805;45.048;5.062;2023-05-20T01:35:19;99568.13;;;13.56;100.00
57376;BME280;44805;45.048;5.062;2023-05-20T01:37:47;99555.97;;;13.39;100.00
57376;BME280;44805;45.048;5.062;2023-05-20T01:40:14;99558.25;;;13.42;100.00
57376;BME280;44805;45.048;5.062;2023-05-20T01:42:41;99525.25;;;13.21;100.00
57376;BME280;44805;45.048;5.062;2023-05-20T01:45:07;99549.19;;;13.36;100.00
57376;BME280;44805;45.048;5.062;2023-05-20T01:47:33;99556.00;;;13.31;100.00
57376;BME280;44805;45.048;5.062;2023-05-20T01:49:58;99551.03;;;13.28;100.00
57376;BME280;44805;45.048;5.062;2023-05-20T01:52:23;99494.97;;;12.93;100.00
57376;BME280;44805;45.048;5.062;2023-05-20T01:54:49;99527.59;;;13.16;100.00
57376;BME280;44805;45.048;5.062;2023-05-20T01:57:18;99548.53;;;13.26;100.00
57376;BME280;44805;45.048;5.062;2023-05-20T01:59:44;99542.78;;;13.14;100.00
57376;BME280;44805;45.048;5.062;2023-05-20T02:02:09;99530.53;;;13.21;100.00
57376;BME280;44805;45.048;5.062;2023-05-20T02:04:35;99493.09;;;13.01;100.00
57376;BME280;44805;45.048;5.062;2023-05-20T02:07:00;99518.66;;;13.17;100.00
57376;BME280;44805;45.048;5.062;2023-05-20T02:09:25;99522.94;;;13.27;100.00
57376;BME280;44805;45.048;5.062;2023-05-20T02:11:51;99526.38;;;13.35;100.00
57376;BME280;44805;45.048;5.062;2023-05-20T02:14:16;99470.13;;;13.02;100.00
57376;BME280;44805;45.048;5.062;2023-05-20T02:16:42;99528.50;;;13.40;100.00
57376;BME280;44805;45.048;5.062;2023-05-20T02:19:07;99531.97;;;13.49;100.00
57376;BME280;44805;45.048;5.062;2023-05-20T02:21:40;99531.13;;;13.48;100.00
57376;BME280;44805;45.048;5.062;2023-05-20T02:24:06;99501.25;;;13.39;100.00
57376;BME280;44805;45.048;5.062;2023-05-20T02:26:33;99520.22;;;13.43;100.00
57376;BME280;44805;45.048;5.062;2023-05-20T02:28:58;99528.47;;;13.56;100.00
57376;BME280;44805;45.048;5.062;2023-05-20T02:31:24;99446.69;;;12.99;100.00
57376;BME280;44805;45.048;5.062;2023-05-20T02:33:50;99502.47;;;13.29;100.00
57376;BME280;44805;45.048;5.062;2023-05-20T02:36:15;99429.75;;;12.77;100.00
57376;BME280;44805;45.048;5.062;2023-05-20T02:38:43;99461.38;;;13.01;100.00
57376;BME280;44805;45.048;5.062;2023-05-20T02:41:08;99474.72;;;13.16;100.00
57376;BME280;44805;45.048;5.062;2023-05-20T02:43:34;99487.25;;;13.31;100.00
57376;BME280;44805;45.048;5.062;2023-05-20T02:46:01;99508.41;;;13.31;100.00
57376;BME280;44805;45.048;5.062;2023-05-20T02:48:26;99503.94;;;13.23;100.00
57376;BME280;44805;45.048;5.062;2023-05-20T02:50:52;99495.19;;;13.14;100.00
57376;BME280;44805;45.048;5.062;2023-05-20T02:53:17;99498.84;;;13.13;100.00
57376;BME280;44805;45.048;5.062;2023-05-20T02:55:44;99506.59;;;13.23;100.00
57376;BME280;44805;45.048;5.062;2023-05-20T02:58:11;99501.31;;;13.23;100.00
57376;BME280;44805;45.048;5.062;2023-05-20T03:00:38;99496.16;;;13.21;100.00
57376;BME280;44805;45.048;5.062;2023-05-20T03:03:05;99505.38;;;13.42;100.00
57376;BME280;44805;45.048;5.062;2023-05-20T03:05:32;99441.44;;;12.91;100.00
57376;BME280;44805;45.048;5.062;2023-05-20T03:07:57;99484.94;;;13.19;100.00
57376;BME280;44805;45.048;5.062;2023-05-20T03:10:23;99506.06;;;13.36;100.00
57376;BME280;44805;45.048;5.062;2023-05-20T03:12:48;99444.38;;;13.04;100.00
57376;BME280;44805;45.048;5.062;2023-05-20T03:15:14;99481.47;;;13.27;100.00
57376;BME280;44805;45.048;5.062;2023-05-20T03:17:39;99464.28;;;13.23;100.00
57376;BME280;44805;45.048;5.062;2023-05-20T03:20:05;99481.97;;;13.31;100.00
57376;BME280;44805;45.048;5.062;2023-05-20T03:22:31;99485.53;;;13.38;100.00
57376;BME280;44805;45.048;5.062;2023-05-20T03:24:57;99407.44;;;12.88;100.00
57376;BME280;44805;45.048;5.062;2023-05-20T03:27:24;99429.56;;;12.87;100.00
57376;BME280;44805;45.048;5.062;2023-05-20T03:29:51;99475.66;;;13.32;100.00
57376;BME280;44805;45.048;5.062;2023-05-20T03:32:19;99420.13;;;12.92;100.00
57376;BME280;44805;45.048;5.062;2023-05-20T03:34:44;99470.75;;;13.20;100.00
57376;BME280;44805;45.048;5.062;2023-05-20T03:37:10;99445.78;;;13.15;100.00
57376;BME280;44805;45.048;5.062;2023-05-20T03:39:35;99427.06;;;12.93;100.00
57376;BME280;44805;45.048;5.062;2023-05-20T03:42:01;99470.19;;;13.25;100.00
57376;BME280;44805;45.048;5.062;2023-05-20T03:44:26;99469.56;;;13.23;100.00
57376;BME280;44805;45.048;5.062;2023-05-20T03:46:51;99478.31;;;13.32;100.00
57376;BME280;44805;45.048;5.062;2023-05-20T03:49:17;99478.97;;;13.25;100.00
57376;BME280;44805;45.048;5.062;2023-05-20T03:51:42;99434.13;;;13.01;100.00
57376;BME280;44805;45.048;5.062;2023-05-20T03:54:08;99479.63;;;13.28;100.00
57376;BME280;44805;45.048;5.062;2023-05-20T03:56:33;99472.84;;;13.25;100.00
57376;BME280;44805;45.048;5.062;2023-05-20T03:58:58;99480.97;;;13.32;100.00
57376;BME280;44805;45.048;5.062;2023-05-20T04:01:24;99413.91;;;12.85;100.00
57376;BME280;44805;45.048;5.062;2023-05-20T04:03:50;99475.00;;;13.30;100.00
57376;BME280;44805;45.048;5.062;2023-05-20T04:06:15;99439.16;;;12.88;100.00
57376;BME280;44805;45.048;5.062;2023-05-20T04:08:41;99475.69;;;13.23;100.00
57376;BME280;44805;45.048;5.062;2023-05-20T04:11:06;99478.97;;;13.25;100.00
57376;BME280;44805;45.048;5.062;2023-05-20T04:13:32;99433.03;;;12.87;100.00
57376;BME280;44805;45.048;5.062;2023-05-20T04:15:57;99441.41;;;12.99;100.00
57376;BME280;44805;45.048;5.062;2023-05-20T04:18:24;99463.47;;;13.14;100.00
57376;BME280;44805;45.048;5.062;2023-05-20T04:20:53;99475.88;;;13.14;100.00
57376;BME280;44805;45.048;5.062;2023-05-20T04:23:20;99485.09;;;13.26;100.00
57376;BME280;44805;45.048;5.062;2023-05-20T04:25:45;99486.91;;;13.25;100.00
57376;BME280;44805;45.048;5.062;2023-05-20T04:28:11;99474.00;;;13.22;100.00
57376;BME280;44805;45.048;5.062;2023-05-20T04:30:38;99466.41;;;13.28;100.00
57376;BME280;44805;45.048;5.062;2023-05-20T04:33:08;99470.28;;;13.48;100.00
57376;BME280;44805;45.048;5.062;2023-05-20T04:35:37;99444.97;;;13.14;100.00
57376;BME280;44805;45.048;5.062;2023-05-20T04:38:06;99419.91;;;13.02;100.00
57376;BME280;44805;45.048;5.062;2023-05-20T04:40:31;99427.19;;;13.00;100.00
57376;BME280;44805;45.048;5.062;2023-05-20T04:43:01;99453.50;;;13.33;100.00
57376;BME280;44805;45.048;5.062;2023-05-20T04:45:28;99459.75;;;13.40;100.00
57376;BME280;44805;45.048;5.062;2023-05-20T04:47:53;99395.16;;;12.95;100.00
57376;BME280;44805;45.048;5.062;2023-05-20T04:50:19;99454.13;;;13.43;100.00
57376;BME280;44805;45.048;5.062;2023-05-20T04:52:45;99449.06;;;13.33;100.00
57376;BME280;44805;45.048;5.062;2023-05-20T04:55:12;99452.88;;;13.31;100.00
57376;BME280;44805;45.048;5.062;2023-05-20T04:57:38;99474.75;;;13.48;100.00
57376;BME280;44805;45.048;5.062;2023-05-20T05:00:10;99484.34;;;13.49;100.00
57376;BME280;44805;45.048;5.062;2023-05-20T05:02:36;99479.88;;;13.49;100.00
57376;BME280;44805;45.048;5.062;2023-05-20T05:05:02;99484.97;;;13.59;100.00
57376;BME280;44805;45.048;5.062;2023-05-20T05:07:27;99463.63;;;13.29;100.00
57376;BME280;44805;45.048;5.062;2023-05-20T05:09:53;99472.31;;;13.46;100.00
57376;BME280;44805;45.048;5.062;2023-05-20T05:12:18;99477.53;;;13.54;99.96
57376;BME280;44805;45.048;5.062;2023-05-20T05:14:43;99475.63;;;13.40;100.00
57376;BME280;44805;45.048;5.062;2023-05-20T05:17:09;99459.28;;;13.36;100.00
57376;BME280;44805;45.048;5.062;2023-05-20T05:19:35;99425.16;;;13.18;100.00
57376;BME280;44805;45.048;5.062;2023-05-20T05:22:00;99420.81;;;13.25;99.29
57376;BME280;44805;45.048;5.062;2023-05-20T05:24:25;99427.22;;;13.39;99.37
57376;BME280;44805;45.048;5.062;2023-05-20T05:26:54;99468.03;;;13.68;100.00
57376;BME280;44805;45.048;5.062;2023-05-20T05:29:20;99468.22;;;13.66;99.07
57376;BME280;44805;45.048;5.062;2023-05-20T05:31:45;99461.34;;;13.80;100.00
57376;BME280;44805;45.048;5.062;2023-05-20T05:34:11;99418.41;;;13.47;100.00
57376;BME280;44805;45.048;5.062;2023-05-20T05:36:38;99449.69;;;13.66;99.82
57376;BME280;44805;45.048;5.062;2023-05-20T05:39:04;99468.16;;;13.75;97.10
57376;BME280;44805;45.048;5.062;2023-05-20T05:41:29;99374.25;;;13.16;98.81
57376;BME280;44805;45.048;5.062;2023-05-20T05:43:57;99459.88;;;13.78;98.35
57376;BME280;44805;45.048;5.062;2023-05-20T05:46:22;99469.34;;;13.72;96.86
57376;BME280;44805;45.048;5.062;2023-05-20T05:48:48;99437.16;;;13.60;97.06
57376;BME280;44805;45.048;5.062;2023-05-20T05:51:15;99414.50;;;13.35;96.62
57376;BME280;44805;45.048;5.062;2023-05-20T05:53:40;99427.50;;;13.44;98.06
57376;BME280;44805;45.048;5.062;2023-05-20T05:56:06;99416.94;;;13.44;97.97
57376;BME280;44805;45.048;5.062;2023-05-20T05:58:31;99464.72;;;13.89;98.78
57376;BME280;44805;45.048;5.062;2023-05-20T06:00:57;99410.75;;;13.52;99.88
57376;BME280;44805;45.048;5.062;2023-05-20T06:03:23;99364.56;;;13.09;98.07
57376;BME280;44805;45.048;5.062;2023-05-20T06:05:49;99429.50;;;13.42;100.00
57376;BME280;44805;45.048;5.062;2023-05-20T06:08:14;99469.19;;;13.65;97.61
57376;BME280;44805;45.048;5.062;2023-05-20T06:10:40;99418.41;;;13.47;97.39
57376;BME280;44805;45.048;5.062;2023-05-20T06:13:05;99351.69;;;13.06;99.95
57376;BME280;44805;45.048;5.062;2023-05-20T06:15:31;99461.19;;;13.74;99.75
57376;BME280;44805;45.048;5.062;2023-05-20T06:17:56;99346.88;;;13.09;96.95
57376;BME280;44805;45.048;5.062;2023-05-20T06:20:22;99365.72;;;13.06;94.46
57376;BME280;44805;45.048;5.062;2023-05-20T06:22:47;99352.03;;;13.02;94.01
57376;BME280;44805;45.048;5.062;2023-05-20T06:25:16;99423.09;;;13.60;94.43
57376;BME280;44805;45.048;5.062;2023-05-20T06:27:41;99425.59;;;13.61;93.58
57376;BME280;44805;45.048;5.062;2023-05-20T06:30:07;99410.41;;;13.78;92.50
57376;BME280;44805;45.048;5.062;2023-05-20T06:32:33;99364.69;;;13.70;90.73
57376;BME280;44805;45.048;5.062;2023-05-20T06:34:58;99420.16;;;14.01;91.43
57376;BME280;44805;45.048;5.062;2023-05-20T06:37:24;99464.03;;;14.18;90.89
57376;BME280;44805;45.048;5.062;2023-05-20T06:39:52;99467.78;;;14.24;91.02
57376;BME280;44805;45.048;5.062;2023-05-20T06:42:19;99467.69;;;14.17;92.58
57376;BME280;44805;45.048;5.062;2023-05-20T06:44:45;99374.69;;;13.59;90.39
57376;BME280;44805;45.048;5.062;2023-05-20T06:47:13;99466.16;;;14.23;90.63
57376;BME280;44805;45.048;5.062;2023-05-20T06:49:39;99481.63;;;14.49;88.50
57376;BME280;44805;45.048;5.062;2023-05-20T06:52:04;99424.66;;;13.77;89.47
57376;BME280;44805;45.048;5.062;2023-05-20T06:54:30;99481.66;;;14.26;89.28
57376;BME280;44805;45.048;5.062;2023-05-20T06:56:58;99401.72;;;13.70;90.66
57376;BME280;44805;45.048;5.062;2023-05-20T06:59:24;99474.38;;;14.28;90.99
57376;BME280;44805;45.048;5.062;2023-05-20T07:01:49;99396.19;;;13.79;91.13
57376;BME280;44805;45.048;5.062;2023-05-20T07:04:15;99394.28;;;13.88;90.40
57376;BME280;44805;45.048;5.062;2023-05-20T07:06:40;99383.28;;;13.99;89.45
57376;BME280;44805;45.048;5.062;2023-05-20T07:09:06;99401.91;;;14.06;89.99
57376;BME280;44805;45.048;5.062;2023-05-20T07:11:31;99365.69;;;14.21;89.39
57376;BME280;44805;45.048;5.062;2023-05-20T07:13:57;99401.34;;;14.48;88.25
57376;BME280;44805;45.048;5.062;2023-05-20T07:16:22;99419.28;;;14.76;86.81
57376;BME280;44805;45.048;5.062;2023-05-20T07:18:48;99349.28;;;14.41;87.38
57376;BME280;44805;45.048;5.062;2023-05-20T07:21:13;99343.50;;;14.52;86.80
57376;BME280;44805;45.048;5.062;2023-05-20T07:23:39;99413.13;;;15.05;86.43
57376;BME280;44805;45.048;5.062;2023-05-20T07:26:05;99398.97;;;14.83;86.35
57376;BME280;44805;45.048;5.062;2023-05-20T07:28:31;99388.44;;;15.05;86.11
57376;BME280;44805;45.048;5.062;2023-05-20T07:30:56;99400.06;;;15.04;84.59
57376;BME280;44805;45.048;5.062;2023-05-20T07:33:24;99413.41;;;14.95;85.76
57376;BME280;44805;45.048;5.062;2023-05-20T07:35:49;99345.81;;;14.70;86.26
57376;BME280;44805;45.048;5.062;2023-05-20T07:38:16;99396.91;;;15.15;85.12
57376;BME280;44805;45.048;5.062;2023-05-20T07:40:41;99396.16;;;14.85;86.42
57376;BME280;44805;45.048;5.062;2023-05-20T07:43:07;99378.50;;;14.77;85.28
57376;BME280;44805;45.048;5.062;2023-05-20T07:45:38;99371.44;;;15.14;85.80
57376;BME280;44805;45.048;5.062;2023-05-20T07:48:04;99412.59;;;15.68;84.58
57376;BME280;44805;45.048;5.062;2023-05-20T07:50:30;99332.00;;;15.11;83.54
57376;BME280;44805;45.048;5.062;2023-05-20T07:52:56;99326.13;;;14.94;83.50
57376;BME280;44805;45.048;5.062;2023-05-20T07:55:23;99319.03;;;15.37;83.36
57376;BME280;44805;45.048;5.062;2023-05-20T07:57:49;99419.22;;;16.00;82.99
57376;BME280;44805;45.048;5.062;2023-05-20T08:00:15;99336.13;;;15.56;81.40
57376;BME280;44805;45.048;5.062;2023-05-20T08:02:40;99323.84;;;15.70;82.28
57376;BME280;44805;45.048;5.062;2023-05-20T08:05:06;99355.59;;;15.85;80.82
57376;BME280;44805;45.048;5.062;2023-05-20T08:07:33;99413.59;;;16.38;80.90
57376;BME280;44805;45.048;5.062;2023-05-20T08:09:58;99413.91;;;16.21;81.32
57376;BME280;44805;45.048;5.062;2023-05-20T08:12:25;99355.59;;;15.85;81.63
57376;BME280;44805;45.048;5.062;2023-05-20T08:14:50;99400.94;;;16.40;79.98
57376;BME280;44805;45.048;5.062;2023-05-20T08:17:16;99374.97;;;16.07;81.82
57376;BME280;44805;45.048;5.062;2023-05-20T08:19:41;99319.19;;;15.79;80.74
57376;BME280;44805;45.048;5.062;2023-05-20T08:22:07;99359.81;;;16.01;80.29
57376;BME280;44805;45.048;5.062;2023-05-20T08:24:33;99363.03;;;16.24;79.96
57376;BME280;44805;45.048;5.062;2023-05-20T08:26:58;99379.34;;;16.56;80.27
57376;BME280;44805;45.048;5.062;2023-05-20T08:29:24;99361.91;;;16.12;79.66
57376;BME280;44805;45.048;5.062;2023-05-20T08:31:49;99351.22;;;15.99;79.23
57376;BME280;44805;45.048;5.062;2023-05-20T08:34:16;99410.66;;;16.54;79.43
57376;BME280;44805;45.048;5.062;2023-05-20T08:36:41;99353.72;;;16.07;80.43
57376;BME280;44805;45.048;5.062;2023-05-20T08:39:09;99348.22;;;16.43;78.60
57376;BME280;44805;45.048;5.062;2023-05-20T08:41:37;99327.47;;;16.25;80.42
57376;BME280;44805;45.048;5.062;2023-05-20T08:44:04;99403.03;;;16.51;79.05
57376;BME280;44805;45.048;5.062;2023-05-20T08:46:31;99382.66;;;16.23;79.39
57376;BME280;44805;45.048;5.062;2023-05-20T08:48:58;99386.16;;;16.31;79.76
57376;BME280;44805;45.048;5.062;2023-05-20T08:51:26;99406.88;;;16.42;78.94
57376;BME280;44805;45.048;5.062;2023-05-20T08:53:52;99371.16;;;16.51;78.57
57376;BME280;44805;45.048;5.062;2023-05-20T08:56:18;99394.22;;;16.44;78.07
57376;BME280;44805;45.048;5.062;2023-05-20T08:58:44;99388.28;;;16.42;78.54
57376;BME280;44805;45.048;5.062;2023-05-20T09:01:11;99385.63;;;16.77;78.45
57376;BME280;44805;45.048;5.062;2023-05-20T09:03:36;99386.56;;;17.04;75.85
57376;BME280;44805;45.048;5.062;2023-05-20T09:06:03;99381.69;;;17.07;75.97
57376;BME280;44805;45.048;5.062;2023-05-20T09:08:29;99368.22;;;17.22;75.62
57376;BME280;44805;45.048;5.062;2023-05-20T09:10:55;99402.78;;;17.84;72.93
57376;BME280;44805;45.048;5.062;2023-05-20T09:13:20;99391.84;;;17.65;73.45
57376;BME280;44805;45.048;5.062;2023-05-20T09:15:46;99395.16;;;17.74;72.96
57376;BME280;44805;45.048;5.062;2023-05-20T09:18:11;99399.91;;;17.92;72.93
57376;BME280;44805;45.048;5.062;2023-05-20T09:20:37;99387.94;;;17.68;74.28
57376;BME280;44805;45.048;5.062;2023-05-20T09:23:05;99398.59;;;17.68;72.66
57376;BME280;44805;45.048;5.062;2023-05-20T09:25:31;99391.63;;;17.60;73.62
57376;BME280;44805;45.048;5.062;2023-05-20T09:27:57;99397.25;;;17.17;73.76
57376;BME280;44805;45.048;5.062;2023-05-20T09:30:23;99373.94;;;17.12;74.28
57376;BME280;44805;45.048;5.062;2023-05-20T09:32:59;99377.91;;;17.70;73.13
57376;BME280;44805;45.048;5.062;2023-05-20T09:35:26;99394.16;;;18.08;73.20
57376;BME280;44805;45.048;5.062;2023-05-20T09:37:56;99395.34;;;17.79;72.23
57376;BME280;44805;45.048;5.062;2023-05-20T09:40:26;99385.97;;;18.10;70.50
57376;BME280;44805;45.048;5.062;2023-05-20T09:43:01;99381.84;;;18.14;70.93
57376;BME280;44805;45.048;5.062;2023-05-20T09:45:27;99385.91;;;18.36;70.60
57376;BME280;44805;45.048;5.062;2023-05-20T09:47:59;99323.22;;;18.14;69.89
57376;BME280;44805;45.048;5.062;2023-05-20T09:50:26;99328.16;;;17.70;69.13
57376;BME280;44805;45.048;5.062;2023-05-20T09:52:53;99380.63;;;18.10;69.35
57376;BME280;44805;45.048;5.062;2023-05-20T09:55:22;99383.50;;;17.88;69.16
57376;BME280;44805;45.048;5.062;2023-05-20T09:57:48;99384.69;;;18.46;69.51
57376;BME280;44805;45.048;5.062;2023-05-20T10:00:14;99382.47;;;17.89;69.75
57376;BME280;44805;45.048;5.062;2023-05-20T10:02:49;99383.72;;;18.07;71.11
57376;BME280;44805;45.048;5.062;2023-05-20T10:05:18;99341.28;;;17.58;70.66
57376;BME280;44805;45.048;5.062;2023-05-20T10:19:32;99378.09;;;17.55;72.95
57376;BME280;44805;45.048;5.062;2023-05-20T10:22:03;99377.28;;;17.54;72.31
57376;BME280;44805;45.048;5.062;2023-05-20T10:24:32;99381.41;;;17.77;71.84
57376;BME280;44805;45.048;5.062;2023-05-20T10:27:00;99380.59;;;17.76;71.18
57376;BME280;44805;45.048;5.062;2023-05-20T10:29:27;99356.81;;;17.75;69.63
57376;BME280;44805;45.048;5.062;2023-05-20T10:31:53;99294.97;;;17.93;68.90
57376;BME280;44805;45.048;5.062;2023-05-20T10:34:20;99339.59;;;18.24;70.08
57376;BME280;44805;45.048;5.062;2023-05-20T10:39:18;99368.28;;;19.07;67.70
57376;BME280;44805;45.048;5.062;2023-05-20T10:41:43;99362.66;;;19.22;65.23
57376;BME280;44805;45.048;5.062;2023-05-20T10:44:09;99358.25;;;19.02;66.22
57376;BME280;44805;45.048;5.062;2023-05-20T10:46:34;99315.19;;;18.99;65.85
57376;BME280;44805;45.048;5.062;2023-05-20T10:49:03;99364.09;;;19.56;65.70
57376;BME280;44805;45.048;5.062;2023-05-20T10:51:29;99362.78;;;19.72;63.38
57376;BME280;44805;45.048;5.062;2023-05-20T10:53:56;99321.13;;;19.64;63.75
57376;BME280;44805;45.048;5.062;2023-05-20T10:56:25;99330.97;;;19.39;62.77
57376;BME280;44805;45.048;5.062;2023-05-20T10:58:52;99271.63;;;19.05;64.17
57376;BME280;44805;45.048;5.062;2023-05-20T11:01:22;99321.28;;;19.38;65.31
57376;BME280;44805;45.048;5.062;2023-05-20T11:03:48;99332.50;;;19.21;65.07
57376;BME280;44805;45.048;5.062;2023-05-20T11:06:16;99356.63;;;18.95;64.88
57376;BME280;44805;45.048;5.062;2023-05-20T11:08:42;99326.03;;;19.04;65.25
57376;BME280;44805;45.048;5.062;2023-05-20T11:11:09;99365.41;;;19.47;64.75
57376;BME280;44805;45.048;5.062;2023-05-20T11:13:35;99346.91;;;19.45;63.42
57376;BME280;44805;45.048;5.062;2023-05-20T11:16:01;99353.50;;;19.43;65.28
57376;BME280;44805;45.048;5.062;2023-05-20T11:18:27;99328.72;;;18.97;65.24
57376;BME280;44805;45.048;5.062;2023-05-20T11:20:57;99347.91;;;19.19;65.43
57376;BME280;44805;45.048;5.062;2023-05-20T11:23:22;99348.91;;;19.57;65.62
57376;BME280;44805;45.048;5.062;2023-05-20T11:25:51;99298.75;;;19.02;65.17
57376;BME280;44805;45.048;5.062;2023-05-20T11:28:21;99331.31;;;19.49;65.62
57376;BME280;44805;45.048;5.062;2023-05-20T11:30:47;99351.31;;;19.33;64.06
57376;BME280;44805;45.048;5.062;2023-05-20T11:33:15;99317.38;;;19.08;64.01
57376;BME280;44805;45.048;5.062;2023-05-20T11:35:48;99301.84;;;18.99;65.19
57376;BME280;44805;45.048;5.062;2023-05-20T11:38:15;99299.72;;;19.07;66.15
57376;BME280;44805;45.048;5.062;2023-05-20T11:40:45;99331.38;;;19.36;65.88
57376;BME280;44805;45.048;5.062;2023-05-20T11:43:12;99340.50;;;19.21;65.53
57376;BME280;44805;45.048;5.062;2023-05-20T11:45:40;99337.00;;;19.21;66.34
57376;BME280;44805;45.048;5.062;2023-05-20T11:48:06;99327.91;;;19.67;64.93
57376;BME280;44805;45.048;5.062;2023-05-20T11:50:36;99337.38;;;19.56;65.45
57376;BME280;44805;45.048;5.062;2023-05-20T11:53:04;99285.47;;;19.52;64.21
57376;BME280;44805;45.048;5.062;2023-05-20T11:55:31;99276.88;;;19.43;63.60
57376;BME280;44805;45.048;5.062;2023-05-20T11:57:58;99311.03;;;19.91;63.59
57376;BME280;44805;45.048;5.062;2023-05-20T12:00:24;99322.50;;;20.17;63.75
57376;BME280;44805;45.048;5.062;2023-05-20T12:02:49;99278.78;;;19.68;61.14
57376;BME280;44805;45.048;5.062;2023-05-20T12:05:15;99293.41;;;19.59;63.34
57376;BME280;44805;45.048;5.062;2023-05-20T12:07:41;99325.31;;;20.04;62.91
57376;BME280;44805;45.048;5.062;2023-05-20T12:10:07;99331.03;;;19.57;62.60
57376;BME280;44805;45.048;5.062;2023-05-20T12:12:32;99264.44;;;19.37;61.85
57376;BME280;44805;45.048;5.062;2023-05-20T12:14:58;99282.50;;;19.67;61.13
57376;BME280;44805;45.048;5.062;2023-05-20T12:17:23;99303.91;;;19.85;62.88
57376;BME280;44805;45.048;5.062;2023-05-20T12:19:49;99267.78;;;19.51;61.83
57376;BME280;44805;45.048;5.062;2023-05-20T12:22:14;99309.03;;;19.62;62.06
57376;BME280;44805;45.048;5.062;2023-05-20T12:24:39;99260.34;;;19.35;63.32
57376;BME280;44805;45.048;5.062;2023-05-20T12:27:05;99261.63;;;19.25;61.89
57376;BME280;44805;45.048;5.062;2023-05-20T12:29:32;99295.75;;;19.48;62.21
57376;BME280;44805;45.048;5.062;2023-05-20T12:32:03;99300.88;;;19.50;62.97
57376;BME280;44805;45.048;5.062;2023-05-20T12:34:28;99322.38;;;19.87;61.52
57376;BME280;44805;45.048;5.062;2023-05-20T12:36:54;99303.78;;;20.17;61.98
57376;BME280;44805;45.048;5.062;2023-05-20T12:39:20;99265.22;;;19.69;60.50
57376;BME280;44805;45.048;5.062;2023-05-20T12:41:45;99318.91;;;20.48;60.30
57376;BME280;44805;45.048;5.062;2023-05-20T12:44:11;99301.34;;;20.34;58.55
57376;BME280;44805;45.048;5.062;2023-05-20T12:46:36;99297.28;;;20.31;58.29
57376;BME280;44805;45.048;5.062;2023-05-20T12:49:02;99313.69;;;20.72;56.60
57376;BME280;44805;45.048;5.062;2023-05-20T12:51:28;99325.00;;;20.55;58.99
57376;BME280;44805;45.048;5.062;2023-05-20T12:53:53;99292.75;;;20.32;57.50
57376;BME280;44805;45.048;5.062;2023-05-20T12:56:19;99244.91;;;19.87;59.82
57376;BME280;44805;45.048;5.062;2023-05-20T12:58:45;99310.44;;;20.33;58.15
57376;BME280;44805;45.048;5.062;2023-05-20T13:01:10;99281.84;;;20.15;58.45
57376;BME280;44805;45.048;5.062;2023-05-20T13:06:57;99332.88;;;20.07;59.27